This is the latest recevied weather packets stored in our database for station/object NA9VY-8. If no packets are shown the sender has not sent any weather packets the latest 1 day(s).
| Time | Temp. | Humidity | Pressure | Rain* | Wind** | Luminosity | Snow |
|---|---|---|---|---|---|---|---|
| 1778037417 | 8.89° C | 99% | 1010.9 hPa | 4.83 mm | - | 0 W/m² | - |
| 1778037114 | 8.89° C | 99% | 1010.9 hPa | 2.29 mm | - | 0 W/m² | - |
| 1778036813 | 8.89° C | 99% | 1010.9 hPa | 1.27 mm | - | 0 W/m² | - |
| 1778036206 | 8.89° C | 99% | 1010.5 hPa | 3.05 mm | - | 0 W/m² | - |
| 1778035902 | 8.89° C | 99% | 1010.6 hPa | 4.32 mm | - | 0 W/m² | - |
| 1778035600 | 8.89° C | 99% | 1010.8 hPa | 3.56 mm | - | 0 W/m² | - |
| 1778035296 | 8.89° C | 99% | 1010.8 hPa | 2.29 mm | - | 0 W/m² | - |
| 1778034992 | 8.89° C | 99% | 1010.7 hPa | 3.56 mm | - | 0 W/m² | - |
| 1778034690 | 8.89° C | 99% | 1010.7 hPa | 5.33 mm | - | 0 W/m² | - |
| 1778034387 | 8.89° C | 99% | 1011 hPa | 2.29 mm | - | 0 W/m² | - |
| 1778034084 | 8.89° C | 99% | 1010.7 hPa | 0.51 mm | - | 0 W/m² | - |
| 1778033782 | 8.89° C | 99% | 1010.2 hPa | 1.27 mm | - | 0 W/m² | - |
| 1778033479 | 8.89° C | 99% | 1010.2 hPa | 1.27 mm | - | 0 W/m² | - |
| 1778033176 | 8.89° C | 99% | 1010.2 hPa | 1.27 mm | - | 0 W/m² | - |
| 1778032571 | 8.89° C | 99% | 1009.9 hPa | 0.51 mm | - | 0 W/m² | - |
| 1778032268 | 8.89° C | 99% | 1010.2 hPa | 0.51 mm | - | 0 W/m² | - |
| 1778031966 | 8.89° C | 99% | 1010 hPa | 0.51 mm | - | 0 W/m² | - |
| 1778031661 | 8.89° C | 99% | 1009.9 hPa | 1.78 mm | - | 0 W/m² | - |
| 1778031359 | 8.89° C | 99% | 1009.9 hPa | 1.78 mm | - | 0 W/m² | - |
| 1778030752 | 8.89° C | 99% | 1010 hPa | 3.05 mm | - | 0 W/m² | - |
| 1778030448 | 8.89° C | 99% | 1010 hPa | 4.83 mm | - | 0 W/m² | - |
| 1778030147 | 8.89° C | 99% | 1009.9 hPa | 3.56 mm | - | 0 W/m² | - |
| 1778029843 | 9.44° C | 99% | 1010.3 hPa | 0.51 mm | - | 0 W/m² | - |
| 1778029542 | 9.44° C | 99% | 1009.8 hPa | 8.89 mm | - | 0 W/m² | - |
* Rain latest hour (hover to see other rain measurements)
** Current wind speed in m/s (hover to see current wind gust speed)